Time,TemperatureF,DewpointF,PressureIn,WindDirection,WindDirectionDegrees,WindSpeedMPH,WindSpeedGustMPH,Humidity,HourlyPrecipIn,Conditions,Clouds,dailyrainin,SolarRadiationWatts/m^2,SoftwareType,DateUTC
2013-03-16 00:22:00,38.0,27.0,-100.00,NW,307,0.0,4.0,64,0.00,,,0.00,0.000000,,2013-03-16 06:22:00,
2013-03-16 00:32:00,38.0,27.0,-100.00,NW,307,0.0,4.0,64,0.00,,,0.00,0.000000,,2013-03-16 06:32:00,
2013-03-16 00:42:00,38.0,27.0,-100.00,NW,307,0.0,4.0,64,0.00,,,0.00,0.000000,,2013-03-16 06:42:00,
2013-03-16 00:51:00,38.0,27.0,-100.00,NW,307,0.0,4.0,64,0.00,,,0.00,0.000000,,2013-03-16 06:51:00,
2013-03-16 01:22:00,37.0,26.0,-100.00,NW,323,0.0,0.0,65,0.00,,,0.00,0.000000,,2013-03-16 07:22:00,
2013-03-16 01:32:00,37.0,26.0,-100.00,NW,323,0.0,0.0,65,0.00,,,0.00,0.000000,,2013-03-16 07:32:00,
2013-03-16 01:42:00,37.0,26.0,-100.00,NW,323,0.0,0.0,65,0.00,,,0.00,0.000000,,2013-03-16 07:42:00,
2013-03-16 01:52:00,37.0,26.0,-100.00,NW,323,0.0,0.0,65,0.00,,,0.00,0.000000,,2013-03-16 07:52:00,
2013-03-16 02:23:00,34.0,24.0,-100.00,East,93,0.0,3.0,67,0.00,,,0.00,0.000000,,2013-03-16 08:23:00,
2013-03-16 02:32:00,34.0,24.0,-100.00,East,93,0.0,3.0,67,0.00,,,0.00,0.000000,,2013-03-16 08:32:00,
2013-03-16 02:42:00,34.0,24.0,-100.00,East,93,0.0,3.0,67,0.00,,,0.00,0.000000,,2013-03-16 08:42:00,
2013-03-16 02:52:00,34.0,24.0,-100.00,East,93,0.0,3.0,67,0.00,,,0.00,0.000000,,2013-03-16 08:52:00,
2013-03-16 03:22:00,33.0,23.0,-100.00,East,86,1.0,2.0,67,0.00,,,0.00,0.000000,,2013-03-16 09:22:00,
2013-03-16 03:32:00,33.0,23.0,-100.00,East,86,1.0,2.0,67,0.00,,,0.00,0.000000,,2013-03-16 09:32:00,
2013-03-16 03:42:00,33.0,23.0,-100.00,East,86,1.0,2.0,67,0.00,,,0.00,0.000000,,2013-03-16 09:42:00,
2013-03-16 03:52:00,33.0,23.0,-100.00,East,86,1.0,2.0,67,0.00,,,0.00,0.000000,,2013-03-16 09:52:00,
2013-03-16 04:22:00,32.0,22.0,-100.00,East,84,1.0,2.0,65,0.00,,,0.00,0.000000,,2013-03-16 10:22:00,
2013-03-16 04:32:00,32.0,22.0,-100.00,East,84,1.0,2.0,65,0.00,,,0.00,0.000000,,2013-03-16 10:32:00,
2013-03-16 04:42:00,32.0,22.0,-100.00,East,84,1.0,2.0,65,0.00,,,0.00,0.000000,,2013-03-16 10:42:00,
2013-03-16 04:52:00,32.0,22.0,-100.00,East,84,1.0,2.0,65,0.00,,,0.00,0.000000,,2013-03-16 10:52:00,
2013-03-16 05:22:00,31.0,21.0,-100.00,East,90,2.0,3.0,67,0.00,,,0.00,0.000000,,2013-03-16 11:22:00,
2013-03-16 05:32:00,31.0,21.0,-100.00,East,90,2.0,3.0,67,0.00,,,0.00,0.000000,,2013-03-16 11:32:00,
2013-03-16 05:42:00,31.0,21.0,-100.00,East,90,2.0,3.0,67,0.00,,,0.00,0.000000,,2013-03-16 11:42:00,
2013-03-16 05:52:00,31.0,21.0,-100.00,East,90,2.0,3.0,67,0.00,,,0.00,0.000000,,2013-03-16 11:52:00,
2013-03-16 06:22:00,30.0,21.0,-100.00,East,98,2.0,4.0,68,0.00,,,0.00,0.000000,,2013-03-16 12:22:00,
2013-03-16 06:32:00,30.0,21.0,-100.00,East,98,2.0,4.0,68,0.00,,,0.00,0.000000,,2013-03-16 12:32:00,
2013-03-16 06:42:00,30.0,21.0,-100.00,East,98,2.0,4.0,68,0.00,,,0.00,0.000000,,2013-03-16 12:42:00,
2013-03-16 06:52:00,30.0,21.0,-100.00,East,98,2.0,4.0,68,0.00,,,0.00,0.000000,,2013-03-16 12:52:00,
2013-03-16 07:22:00,30.0,22.0,-100.00,East,93,3.0,3.0,72,0.00,,,0.00,0.000000,,2013-03-16 13:22:00,
2013-03-16 07:32:00,30.0,22.0,-100.00,East,93,3.0,3.0,72,0.00,,,0.00,0.000000,,2013-03-16 13:32:00,
2013-03-16 07:41:00,30.0,22.0,-100.00,East,93,3.0,3.0,72,0.00,,,0.00,0.000000,,2013-03-16 13:41:00,
2013-03-16 07:52:00,30.0,22.0,-100.00,East,93,3.0,3.0,72,0.00,,,0.00,0.000000,,2013-03-16 13:52:00,
2013-03-16 08:22:00,28.0,20.0,-100.00,East,96,2.0,3.0,72,0.00,,,0.00,1.000000,,2013-03-16 14:22:00,
2013-03-16 08:32:00,28.0,20.0,-100.00,East,96,2.0,3.0,72,0.00,,,0.00,1.000000,,2013-03-16 14:32:00,
2013-03-16 08:42:00,28.0,20.0,-100.00,East,96,2.0,3.0,72,0.00,,,0.00,1.000000,,2013-03-16 14:42:00,
2013-03-16 08:52:00,28.0,20.0,-100.00,East,96,2.0,3.0,72,0.00,,,0.00,1.000000,,2013-03-16 14:52:00,
2013-03-16 09:22:00,31.0,22.0,-100.00,ESE,105,1.0,4.0,70,0.00,,,0.00,37.000000,,2013-03-16 15:22:00,
2013-03-16 09:33:00,31.0,22.0,-100.00,ESE,105,1.0,4.0,70,0.00,,,0.00,37.000000,,2013-03-16 15:33:00,
2013-03-16 09:43:00,31.0,22.0,-100.00,ESE,105,1.0,4.0,70,0.00,,,0.00,37.000000,,2013-03-16 15:43:00,
2013-03-16 09:52:00,31.0,22.0,-100.00,ESE,105,1.0,4.0,70,0.00,,,0.00,37.000000,,2013-03-16 15:52:00,
2013-03-16 10:22:00,36.0,24.0,-100.00,East,91,2.0,4.0,61,0.00,,,0.00,114.000000,,2013-03-16 16:22:00,
2013-03-16 10:42:00,36.0,24.0,-100.00,East,91,2.0,4.0,61,0.00,,,0.00,114.000000,,2013-03-16 16:42:00,
2013-03-16 10:52:00,36.0,24.0,-100.00,East,91,2.0,4.0,61,0.00,,,0.00,114.000000,,2013-03-16 16:52:00,
2013-03-16 11:22:00,39.0,26.0,-100.00,East,94,2.0,4.0,59,0.00,,,0.00,222.000000,,2013-03-16 17:22:00,
2013-03-16 11:32:00,39.0,26.0,-100.00,East,94,2.0,4.0,59,0.00,,,0.00,222.000000,,2013-03-16 17:32:00,
2013-03-16 11:42:00,39.0,26.0,-100.00,East,94,2.0,4.0,59,0.00,,,0.00,222.000000,,2013-03-16 17:42:00,
2013-03-16 11:52:00,39.0,26.0,-100.00,East,94,2.0,4.0,59,0.00,,,0.00,222.000000,,2013-03-16 17:52:00,
2013-03-16 12:22:00,43.0,27.0,-100.00,SE,138,1.0,5.0,52,0.00,,,0.00,295.000000,,2013-03-16 18:22:00,
2013-03-16 12:42:00,43.0,27.0,-100.00,SE,138,1.0,5.0,52,0.00,,,0.00,295.000000,,2013-03-16 18:42:00,
2013-03-16 12:52:00,43.0,27.0,-100.00,SE,138,1.0,5.0,52,0.00,,,0.00,295.000000,,2013-03-16 18:52:00,
2013-03-16 13:22:00,45.0,26.0,-100.00,West,280,3.0,6.0,47,0.00,,,0.00,647.000000,,2013-03-16 19:22:00,
2013-03-16 13:32:00,45.0,26.0,-100.00,West,280,3.0,6.0,47,0.00,,,0.00,647.000000,,2013-03-16 19:32:00,
2013-03-16 13:42:00,45.0,26.0,-100.00,West,280,3.0,6.0,47,0.00,,,0.00,647.000000,,2013-03-16 19:42:00,
2013-03-16 13:52:00,45.0,26.0,-100.00,West,280,3.0,6.0,47,0.00,,,0.00,647.000000,,2013-03-16 19:52:00,
2013-03-16 14:22:00,47.0,27.0,-100.00,West,273,3.0,8.0,46,0.00,,,0.00,609.000000,,2013-03-16 20:22:00,
2013-03-16 14:32:00,47.0,27.0,-100.00,West,273,3.0,8.0,46,0.00,,,0.00,609.000000,,2013-03-16 20:32:00,
2013-03-16 14:42:00,47.0,27.0,-100.00,West,273,3.0,8.0,46,0.00,,,0.00,609.000000,,2013-03-16 20:42:00,
2013-03-16 14:51:00,47.0,27.0,-100.00,West,273,3.0,8.0,46,0.00,,,0.00,609.000000,,2013-03-16 20:51:00,
2013-03-16 15:22:00,46.0,27.0,-100.00,West,273,2.0,8.0,47,0.00,,,0.00,542.000000,,2013-03-16 21:22:00,
2013-03-16 15:32:00,46.0,27.0,-100.00,West,273,2.0,8.0,47,0.00,,,0.00,542.000000,,2013-03-16 21:32:00,
2013-03-16 15:43:00,46.0,27.0,-100.00,West,273,2.0,8.0,47,0.00,,,0.00,542.000000,,2013-03-16 21:43:00,
2013-03-16 15:52:00,46.0,27.0,-100.00,West,273,2.0,8.0,47,0.00,,,0.00,542.000000,,2013-03-16 21:52:00,
2013-03-16 16:22:00,47.0,25.0,-100.00,WSW,255,4.0,9.0,42,0.00,,,0.00,467.000000,,2013-03-16 22:22:00,
2013-03-16 16:33:00,47.0,25.0,-100.00,WSW,255,4.0,9.0,42,0.00,,,0.00,467.000000,,2013-03-16 22:33:00,
2013-03-16 16:42:00,47.0,25.0,-100.00,WSW,255,4.0,9.0,42,0.00,,,0.00,467.000000,,2013-03-16 22:42:00,
2013-03-16 16:52:00,47.0,25.0,-100.00,WSW,255,4.0,9.0,42,0.00,,,0.00,467.000000,,2013-03-16 22:52:00,
2013-03-16 17:22:00,44.0,25.0,-100.00,WSW,239,2.0,11.0,47,0.00,,,0.00,321.000000,,2013-03-16 23:22:00,
2013-03-16 17:32:00,44.0,25.0,-100.00,WSW,239,2.0,11.0,47,0.00,,,0.00,321.000000,,2013-03-16 23:32:00,
2013-03-16 17:42:00,44.0,25.0,-100.00,WSW,239,2.0,11.0,47,0.00,,,0.00,321.000000,,2013-03-16 23:42:00,
2013-03-16 17:52:00,44.0,25.0,-100.00,WSW,239,2.0,11.0,47,0.00,,,0.00,321.000000,,2013-03-16 23:52:00,
2013-03-16 18:22:00,41.0,25.0,-100.00,SSW,212,2.0,10.0,52,0.00,,,0.00,116.000000,,2013-03-17 00:22:00,
2013-03-16 18:32:00,41.0,25.0,-100.00,SSW,212,2.0,10.0,52,0.00,,,0.00,116.000000,,2013-03-17 00:32:00,
2013-03-16 18:42:00,41.0,25.0,-100.00,SSW,212,2.0,10.0,52,0.00,,,0.00,116.000000,,2013-03-17 00:42:00,
2013-03-16 18:52:00,41.0,25.0,-100.00,SSW,212,2.0,10.0,52,0.00,,,0.00,116.000000,,2013-03-17 00:52:00,
2013-03-16 19:22:00,39.0,25.0,-100.00,SW,236,3.0,10.0,58,0.00,,,0.00,62.000000,,2013-03-17 01:22:00,
2013-03-16 19:32:00,39.0,25.0,-100.00,SW,236,3.0,10.0,58,0.00,,,0.00,62.000000,,2013-03-17 01:32:00,
2013-03-16 19:42:00,39.0,25.0,-100.00,SW,236,3.0,10.0,58,0.00,,,0.00,62.000000,,2013-03-17 01:42:00,
2013-03-16 19:52:00,39.0,25.0,-100.00,SW,236,3.0,10.0,58,0.00,,,0.00,62.000000,,2013-03-17 01:52:00,
2013-03-16 20:22:00,35.0,32.0,-100.00,NW,316,0.0,10.0,88,0.00,,,0.00,8.000000,,2013-03-17 02:22:00,
2013-03-16 20:33:00,35.0,32.0,-100.00,NW,316,0.0,10.0,88,0.00,,,0.00,8.000000,,2013-03-17 02:33:00,
2013-03-16 20:42:00,35.0,32.0,-100.00,NW,316,0.0,10.0,88,0.00,,,0.00,8.000000,,2013-03-17 02:42:00,
2013-03-16 20:52:00,35.0,32.0,-100.00,NW,316,0.0,10.0,88,0.00,,,0.00,8.000000,,2013-03-17 02:52:00,
2013-03-16 21:22:00,34.0,32.0,-100.00,ESE,108,0.0,3.0,92,0.00,,,0.00,0.000000,,2013-03-17 03:22:00,
2013-03-16 21:33:00,34.0,32.0,-100.00,ESE,108,0.0,3.0,92,0.00,,,0.00,0.000000,,2013-03-17 03:33:00,
2013-03-16 21:42:00,34.0,32.0,-100.00,ESE,108,0.0,3.0,92,0.00,,,0.00,0.000000,,2013-03-17 03:42:00,
2013-03-16 21:52:00,34.0,32.0,-100.00,ESE,108,0.0,3.0,92,0.00,,,0.00,0.000000,,2013-03-17 03:52:00,
2013-03-16 22:23:00,32.0,31.0,-100.00,WSW,249,1.0,6.0,97,0.01,,,0.01,0.000000,,2013-03-17 04:23:00,
2013-03-16 22:32:00,32.0,31.0,-100.00,WSW,249,1.0,6.0,97,0.01,,,0.01,0.000000,,2013-03-17 04:32:00,
2013-03-16 22:42:00,32.0,31.0,-100.00,WSW,249,1.0,6.0,97,0.01,,,0.01,0.000000,,2013-03-17 04:42:00,
2013-03-16 22:53:00,32.0,31.0,-100.00,WSW,249,1.0,6.0,97,0.01,,,0.01,0.000000,,2013-03-17 04:53:00,
2013-03-16 23:22:00,32.0,31.0,-100.00,WSW,247,1.0,5.0,97,0.00,,,-99.99,0.000000,,2013-03-17 05:22:00,
2013-03-16 23:32:00,32.0,31.0,-100.00,WSW,247,1.0,5.0,97,0.00,,,-99.99,0.000000,,2013-03-17 05:32:00,
2013-03-16 23:42:00,32.0,31.0,-100.00,WSW,247,1.0,5.0,97,0.00,,,-99.99,0.000000,,2013-03-17 05:42:00,
2013-03-16 23:51:00,32.0,31.0,-100.00,WSW,247,1.0,5.0,97,0.00,,,-99.99,0.000000,,2013-03-17 05:51:00,